sensor_id;sensor_type;location;lat;lon;timestamp;pressure;altitude;pressure_sealevel;temperature;humidity
10992;BME280;5549;47.028;15.514;2024-01-07T00:00:17;95166.38;;;7.76;73.39
10992;BME280;5549;47.028;15.514;2024-01-07T00:02:44;95160.09;;;7.69;73.71
10992;BME280;5549;47.028;15.514;2024-01-07T00:05:13;95155.44;;;7.63;73.86
10992;BME280;5549;47.028;15.514;2024-01-07T00:07:41;95147.78;;;7.52;74.16
10992;BME280;5549;47.028;15.514;2024-01-07T00:10:09;95150.13;;;7.55;74.39
10992;BME280;5549;47.028;15.514;2024-01-07T00:12:37;95152.34;;;7.50;74.06
10992;BME280;5549;47.028;15.514;2024-01-07T00:15:07;95153.84;;;7.52;74.20
10992;BME280;5549;47.028;15.514;2024-01-07T00:17:35;95153.56;;;7.55;74.18
10992;BME280;5549;47.028;15.514;2024-01-07T00:20:04;95148.84;;;7.59;73.82
10992;BME280;5549;47.028;15.514;2024-01-07T00:22:33;95139.28;;;7.50;73.95
10992;BME280;5549;47.028;15.514;2024-01-07T00:24:59;95137.06;;;7.55;73.65
10992;BME280;5549;47.028;15.514;2024-01-07T00:27:27;95134.59;;;7.53;73.94
10992;BME280;5549;47.028;15.514;2024-01-07T00:29:55;95145.03;;;7.53;73.48
10992;BME280;5549;47.028;15.514;2024-01-07T00:32:22;95135.94;;;7.57;73.17
10992;BME280;5549;47.028;15.514;2024-01-07T00:34:50;95134.44;;;7.55;73.43
10992;BME280;5549;47.028;15.514;2024-01-07T00:37:20;95136.75;;;7.58;73.63
10992;BME280;5549;47.028;15.514;2024-01-07T00:39:49;95137.34;;;7.52;73.65
10992;BME280;5549;47.028;15.514;2024-01-07T00:42:18;95136.00;;;7.48;73.47
10992;BME280;5549;47.028;15.514;2024-01-07T00:44:48;95129.59;;;7.60;73.31
10992;BME280;5549;47.028;15.514;2024-01-07T00:47:16;95136.84;;;7.66;73.45
10992;BME280;5549;47.028;15.514;2024-01-07T00:49:43;95137.25;;;7.71;73.28
10992;BME280;5549;47.028;15.514;2024-01-07T00:52:11;95132.81;;;7.54;72.54
10992;BME280;5549;47.028;15.514;2024-01-07T00:54:39;95133.56;;;7.64;72.80
10992;BME280;5549;47.028;15.514;2024-01-07T00:57:10;95135.31;;;7.73;72.49
10992;BME280;5549;47.028;15.514;2024-01-07T00:59:38;95138.31;;;7.78;72.70
10992;BME280;5549;47.028;15.514;2024-01-07T01:02:06;95145.47;;;7.76;72.95
10992;BME280;5549;47.028;15.514;2024-01-07T01:04:33;95140.25;;;7.76;72.69
10992;BME280;5549;47.028;15.514;2024-01-07T01:07:01;95139.28;;;7.77;72.69
10992;BME280;5549;47.028;15.514;2024-01-07T01:09:28;95132.78;;;7.81;72.44
10992;BME280;5549;47.028;15.514;2024-01-07T01:11:56;95129.19;;;7.82;72.49
10992;BME280;5549;47.028;15.514;2024-01-07T01:14:25;95128.22;;;7.83;72.34
10992;BME280;5549;47.028;15.514;2024-01-07T01:16:52;95130.69;;;7.85;72.05
10992;BME280;5549;47.028;15.514;2024-01-07T01:19:20;95125.72;;;7.91;72.59
10992;BME280;5549;47.028;15.514;2024-01-07T01:21:55;95128.31;;;7.91;72.47
10992;BME280;5549;47.028;15.514;2024-01-07T01:24:25;95129.97;;;7.92;72.59
10992;BME280;5549;47.028;15.514;2024-01-07T01:26:52;95129.97;;;7.92;72.39
10992;BME280;5549;47.028;15.514;2024-01-07T01:29:20;95133.25;;;7.94;72.44
10992;BME280;5549;47.028;15.514;2024-01-07T01:31:49;95124.88;;;7.91;72.04
10992;BME280;5549;47.028;15.514;2024-01-07T01:34:16;95126.38;;;7.93;72.19
10992;BME280;5549;47.028;15.514;2024-01-07T01:36:44;95128.03;;;7.94;72.15
10992;BME280;5549;47.028;15.514;2024-01-07T01:39:12;95119.22;;;7.95;72.58
10992;BME280;5549;47.028;15.514;2024-01-07T01:41:42;95122.94;;;7.93;72.63
10992;BME280;5549;47.028;15.514;2024-01-07T01:44:09;95117.88;;;7.91;72.50
10992;BME280;5549;47.028;15.514;2024-01-07T01:46:37;95113.31;;;7.93;72.14
10992;BME280;5549;47.028;15.514;2024-01-07T01:49:06;95113.97;;;7.95;72.01
10992;BME280;5549;47.028;15.514;2024-01-07T01:51:37;95108.75;;;7.95;72.13
10992;BME280;5549;47.028;15.514;2024-01-07T01:54:05;95112.03;;;7.97;72.41
10992;BME280;5549;47.028;15.514;2024-01-07T01:56:33;95111.66;;;7.92;71.89
10992;BME280;5549;47.028;15.514;2024-01-07T01:59:01;95103.53;;;7.95;72.04
10992;BME280;5549;47.028;15.514;2024-01-07T02:01:29;95107.94;;;7.95;71.76
10992;BME280;5549;47.028;15.514;2024-01-07T02:04:09;95106.97;;;7.96;72.06
10992;BME280;5549;47.028;15.514;2024-01-07T02:06:39;95104.19;;;7.97;71.90
10992;BME280;5549;47.028;15.514;2024-01-07T02:09:07;95113.69;;;7.98;71.54
10992;BME280;5549;47.028;15.514;2024-01-07T02:11:36;95106.81;;;7.97;71.78
10992;BME280;5549;47.028;15.514;2024-01-07T02:14:04;95099.94;;;7.96;71.44
10992;BME280;5549;47.028;15.514;2024-01-07T02:16:34;95102.56;;;7.96;71.18
10992;BME280;5549;47.028;15.514;2024-01-07T02:19:02;95108.91;;;7.94;70.85
10992;BME280;5549;47.028;15.514;2024-01-07T02:21:32;95111.00;;;7.90;71.80
10992;BME280;5549;47.028;15.514;2024-01-07T02:24:06;95111.19;;;7.79;72.00
10992;BME280;5549;47.028;15.514;2024-01-07T02:26:33;95110.22;;;7.80;72.13
10992;BME280;5549;47.028;15.514;2024-01-07T02:29:01;95104.72;;;7.83;72.86
10992;BME280;5549;47.028;15.514;2024-01-07T02:31:31;95107.47;;;7.82;72.48
10992;BME280;5549;47.028;15.514;2024-01-07T02:33:59;95108.44;;;7.81;71.83
10992;BME280;5549;47.028;15.514;2024-01-07T02:36:28;95109.66;;;7.86;71.25
10992;BME280;5549;47.028;15.514;2024-01-07T02:38:56;95101.81;;;7.86;71.48
10992;BME280;5549;47.028;15.514;2024-01-07T02:41:25;95104.41;;;7.86;71.20
10992;BME280;5549;47.028;15.514;2024-01-07T02:43:53;95097.53;;;7.85;71.54
10992;BME280;5549;47.028;15.514;2024-01-07T02:46:21;95102.47;;;7.88;72.18
10992;BME280;5549;47.028;15.514;2024-01-07T02:48:48;95099.56;;;7.91;72.08
10992;BME280;5549;47.028;15.514;2024-01-07T02:51:16;95099.19;;;7.86;71.96
10992;BME280;5549;47.028;15.514;2024-01-07T02:53:43;95095.91;;;7.84;72.11
10992;BME280;5549;47.028;15.514;2024-01-07T02:56:11;95092.03;;;7.88;71.57
10992;BME280;5549;47.028;15.514;2024-01-07T02:58:39;95085.97;;;7.88;71.61
10992;BME280;5549;47.028;15.514;2024-01-07T03:01:09;95092.84;;;7.89;71.75
10992;BME280;5549;47.028;15.514;2024-01-07T03:03:39;95097.25;;;7.88;72.09
10992;BME280;5549;47.028;15.514;2024-01-07T03:06:07;95092.75;;;7.81;72.32
10992;BME280;5549;47.028;15.514;2024-01-07T03:08:34;95098.81;;;7.81;72.27
10992;BME280;5549;47.028;15.514;2024-01-07T03:11:05;95096.03;;;7.83;72.66
10992;BME280;5549;47.028;15.514;2024-01-07T03:13:34;95090.81;;;7.83;72.22
10992;BME280;5549;47.028;15.514;2024-01-07T03:16:04;95099.19;;;7.86;72.34
10992;BME280;5549;47.028;15.514;2024-01-07T03:18:32;95091.78;;;7.82;71.71
10992;BME280;5549;47.028;15.514;2024-01-07T03:20:59;95103.38;;;7.79;71.92
10992;BME280;5549;47.028;15.514;2024-01-07T03:23:27;95099.63;;;7.82;71.91
10992;BME280;5549;47.028;15.514;2024-01-07T03:26:00;95106.66;;;7.81;71.96
10992;BME280;5549;47.028;15.514;2024-01-07T03:28:28;95105.97;;;7.79;71.86
10992;BME280;5549;47.028;15.514;2024-01-07T03:30:56;95105.16;;;7.79;71.54
10992;BME280;5549;47.028;15.514;2024-01-07T03:33:25;95103.38;;;7.79;71.91
10992;BME280;5549;47.028;15.514;2024-01-07T03:35:53;95106.41;;;7.75;72.00
10992;BME280;5549;47.028;15.514;2024-01-07T03:38:21;95105.00;;;7.80;72.07
10992;BME280;5549;47.028;15.514;2024-01-07T03:40:48;95114.09;;;7.76;71.94
10992;BME280;5549;47.028;15.514;2024-01-07T03:43:16;95110.56;;;7.50;73.49
10992;BME280;5549;47.028;15.514;2024-01-07T03:45:44;95121.13;;;7.48;73.20
10992;BME280;5549;47.028;15.514;2024-01-07T03:48:12;95117.13;;;7.54;73.71
10992;BME280;5549;47.028;15.514;2024-01-07T03:50:41;95119.75;;;7.54;73.95
10992;BME280;5549;47.028;15.514;2024-01-07T03:53:09;95117.81;;;7.56;73.41
10992;BME280;5549;47.028;15.514;2024-01-07T03:55:37;95127.97;;;7.59;73.60
10992;BME280;5549;47.028;15.514;2024-01-07T03:58:05;95125.19;;;7.60;73.41
10992;BME280;5549;47.028;15.514;2024-01-07T04:00:33;95126.56;;;7.64;73.22
10992;BME280;5549;47.028;15.514;2024-01-07T04:03:02;95125.44;;;7.67;73.84
10992;BME280;5549;47.028;15.514;2024-01-07T04:05:30;95126.25;;;7.67;73.58
10992;BME280;5549;47.028;15.514;2024-01-07T04:08:01;95128.06;;;7.67;73.09
10992;BME280;5549;47.028;15.514;2024-01-07T04:10:31;95131.25;;;7.61;73.27
10992;BME280;5549;47.028;15.514;2024-01-07T04:12:58;95138.13;;;7.62;73.67
10992;BME280;5549;47.028;15.514;2024-01-07T04:15:26;95134.09;;;7.67;73.29
10992;BME280;5549;47.028;15.514;2024-01-07T04:17:53;95140.81;;;7.70;73.65
10992;BME280;5549;47.028;15.514;2024-01-07T04:20:21;95137.25;;;7.71;73.22
10992;BME280;5549;47.028;15.514;2024-01-07T04:22:50;95139.84;;;7.71;73.30
10992;BME280;5549;47.028;15.514;2024-01-07T04:25:19;95141.50;;;7.72;72.89
10992;BME280;5549;47.028;15.514;2024-01-07T04:27:46;95146.59;;;7.73;73.45
10992;BME280;5549;47.028;15.514;2024-01-07T04:30:14;95148.09;;;7.76;73.16
10992;BME280;5549;47.028;15.514;2024-01-07T04:32:41;95149.19;;;7.73;72.87
10992;BME280;5549;47.028;15.514;2024-01-07T04:35:09;95155.16;;;7.66;73.10
10992;BME280;5549;47.028;15.514;2024-01-07T04:37:37;95146.34;;;7.67;73.88
10992;BME280;5549;47.028;15.514;2024-01-07T04:40:06;95158.59;;;7.66;73.22
10992;BME280;5549;47.028;15.514;2024-01-07T04:42:35;95160.94;;;7.60;73.83
10992;BME280;5549;47.028;15.514;2024-01-07T04:45:04;95160.94;;;7.60;74.32
10992;BME280;5549;47.028;15.514;2024-01-07T04:47:33;95164.09;;;7.63;73.80
10992;BME280;5549;47.028;15.514;2024-01-07T04:50:01;95168.88;;;7.68;74.48
10992;BME280;5549;47.028;15.514;2024-01-07T04:52:30;95173.00;;;7.70;73.73
10992;BME280;5549;47.028;15.514;2024-01-07T04:54:58;95171.88;;;7.73;73.97
10992;BME280;5549;47.028;15.514;2024-01-07T04:57:25;95178.56;;;7.58;74.27
10992;BME280;5549;47.028;15.514;2024-01-07T04:59:54;95177.75;;;7.57;74.11
10992;BME280;5549;47.028;15.514;2024-01-07T05:02:22;95170.59;;;7.59;73.77
10992;BME280;5549;47.028;15.514;2024-01-07T05:04:49;95170.44;;;7.61;73.58
10992;BME280;5549;47.028;15.514;2024-01-07T05:07:17;95176.63;;;7.60;73.83
10992;BME280;5549;47.028;15.514;2024-01-07T05:09:45;95180.06;;;7.60;73.84
10992;BME280;5549;47.028;15.514;2024-01-07T05:12:12;95178.56;;;7.58;73.53
10992;BME280;5549;47.028;15.514;2024-01-07T05:14:40;95179.00;;;7.53;73.26
10992;BME280;5549;47.028;15.514;2024-01-07T05:17:11;95184.13;;;7.45;73.74
10992;BME280;5549;47.028;15.514;2024-01-07T05:19:40;95176.00;;;7.48;73.86
10992;BME280;5549;47.028;15.514;2024-01-07T05:22:08;95180.94;;;7.51;73.24
10992;BME280;5549;47.028;15.514;2024-01-07T05:24:37;95188.22;;;7.48;73.91
10992;BME280;5549;47.028;15.514;2024-01-07T05:27:05;95187.88;;;7.33;74.45
10992;BME280;5549;47.028;15.514;2024-01-07T05:29:32;95183.34;;;7.35;74.69
10992;BME280;5549;47.028;15.514;2024-01-07T05:32:00;95184.13;;;7.45;74.23
10992;BME280;5549;47.028;15.514;2024-01-07T05:34:30;95190.56;;;7.51;73.63
10992;BME280;5549;47.028;15.514;2024-01-07T05:36:57;95189.34;;;7.45;73.94
10992;BME280;5549;47.028;15.514;2024-01-07T05:39:25;95198.44;;;7.41;74.27
10992;BME280;5549;47.028;15.514;2024-01-07T05:41:53;95195.66;;;7.43;74.14
10992;BME280;5549;47.028;15.514;2024-01-07T05:44:20;95192.78;;;7.46;73.22
10992;BME280;5549;47.028;15.514;2024-01-07T05:46:55;95187.94;;;7.51;73.61
10992;BME280;5549;47.028;15.514;2024-01-07T05:49:23;95193.16;;;7.51;73.46
10992;BME280;5549;47.028;15.514;2024-01-07T05:51:55;95194.28;;;7.48;73.87
10992;BME280;5549;47.028;15.514;2024-01-07T05:54:22;95202.25;;;7.47;74.04
10992;BME280;5549;47.028;15.514;2024-01-07T05:56:50;95198.69;;;7.48;73.43
10992;BME280;5549;47.028;15.514;2024-01-07T05:59:20;95204.44;;;7.51;73.22
10992;BME280;5549;47.028;15.514;2024-01-07T06:01:48;95195.63;;;7.52;73.85
10992;BME280;5549;47.028;15.514;2024-01-07T06:04:16;95199.94;;;7.44;73.80
10992;BME280;5549;47.028;15.514;2024-01-07T06:06:45;95204.88;;;7.47;73.82
10992;BME280;5549;47.028;15.514;2024-01-07T06:09:14;95201.69;;;7.53;73.91
10992;BME280;5549;47.028;15.514;2024-01-07T06:11:42;95209.91;;;7.58;74.57
10992;BME280;5549;47.028;15.514;2024-01-07T06:14:10;95204.41;;;7.61;73.89
10992;BME280;5549;47.028;15.514;2024-01-07T06:16:37;95203.44;;;7.62;74.09
10992;BME280;5549;47.028;15.514;2024-01-07T06:19:05;95215.38;;;7.64;73.69
10992;BME280;5549;47.028;15.514;2024-01-07T06:21:32;95213.75;;;7.63;73.76
10992;BME280;5549;47.028;15.514;2024-01-07T06:24:03;95212.09;;;7.62;73.39
10992;BME280;5549;47.028;15.514;2024-01-07T06:26:32;95213.34;;;7.58;73.34
10992;BME280;5549;47.028;15.514;2024-01-07T06:28:59;95218.13;;;7.63;73.11
10992;BME280;5549;47.028;15.514;2024-01-07T06:31:27;95219.78;;;7.64;73.83
10992;BME280;5549;47.028;15.514;2024-01-07T06:33:55;95217.03;;;7.65;73.12
10992;BME280;5549;47.028;15.514;2024-01-07T06:36:23;95221.28;;;7.66;73.34
10992;BME280;5549;47.028;15.514;2024-01-07T06:38:51;95221.56;;;7.63;73.70
10992;BME280;5549;47.028;15.514;2024-01-07T06:41:19;95225.31;;;7.61;72.98
10992;BME280;5549;47.028;15.514;2024-01-07T06:43:48;95218.72;;;7.57;73.81
10992;BME280;5549;47.028;15.514;2024-01-07T06:46:16;95226.16;;;7.52;73.36
10992;BME280;5549;47.028;15.514;2024-01-07T06:48:43;95227.38;;;7.57;74.04
10992;BME280;5549;47.028;15.514;2024-01-07T06:51:11;95226.28;;;7.60;73.83
10992;BME280;5549;47.028;15.514;2024-01-07T06:53:38;95229.69;;;7.60;74.05
10992;BME280;5549;47.028;15.514;2024-01-07T06:56:06;95230.38;;;7.62;73.86
10992;BME280;5549;47.028;15.514;2024-01-07T06:58:34;95230.25;;;7.64;73.74
10992;BME280;5549;47.028;15.514;2024-01-07T07:01:06;95230.44;;;7.80;75.21
10992;BME280;5549;47.028;15.514;2024-01-07T07:03:33;95237.13;;;8.20;80.31
10992;BME280;5549;47.028;15.514;2024-01-07T07:06:01;95236.06;;;8.58;80.52
10992;BME280;5549;47.028;15.514;2024-01-07T07:08:28;95237.22;;;8.91;79.08
10992;BME280;5549;47.028;15.514;2024-01-07T07:10:56;95226.78;;;9.17;77.18
10992;BME280;5549;47.028;15.514;2024-01-07T07:13:24;95228.75;;;9.41;75.29
10992;BME280;5549;47.028;15.514;2024-01-07T07:15:51;95223.78;;;9.63;73.64
10992;BME280;5549;47.028;15.514;2024-01-07T07:18:20;95232.91;;;9.85;73.01
10992;BME280;5549;47.028;15.514;2024-01-07T07:20:50;95227.03;;;9.91;71.12
10992;BME280;5549;47.028;15.514;2024-01-07T07:23:18;95225.47;;;10.07;70.73
10992;BME280;5549;47.028;15.514;2024-01-07T07:25:46;95234.69;;;10.19;69.73
10992;BME280;5549;47.028;15.514;2024-01-07T07:28:14;95234.28;;;10.32;69.71
10992;BME280;5549;47.028;15.514;2024-01-07T07:30:44;95232.19;;;10.43;69.34
10992;BME280;5549;47.028;15.514;2024-01-07T07:33:12;95236.31;;;10.54;69.23
10992;BME280;5549;47.028;15.514;2024-01-07T07:35:42;95241.28;;;10.65;68.11
10992;BME280;5549;47.028;15.514;2024-01-07T07:38:09;95241.94;;;10.75;67.79
10992;BME280;5549;47.028;15.514;2024-01-07T07:40:37;95240.97;;;10.84;67.15
10992;BME280;5549;47.028;15.514;2024-01-07T07:43:04;95244.75;;;10.90;66.82
10992;BME280;5549;47.028;15.514;2024-01-07T07:45:32;95247.03;;;10.93;66.27
10992;BME280;5549;47.028;15.514;2024-01-07T07:48:00;95250.66;;;11.00;66.51
10992;BME280;5549;47.028;15.514;2024-01-07T07:50:30;95251.81;;;11.06;65.79
10992;BME280;5549;47.028;15.514;2024-01-07T07:52:59;95253.94;;;11.02;65.34
10992;BME280;5549;47.028;15.514;2024-01-07T07:55:28;95258.72;;;10.99;65.22
10992;BME280;5549;47.028;15.514;2024-01-07T07:57:56;95253.78;;;10.96;64.83
10992;BME280;5549;47.028;15.514;2024-01-07T08:00:26;95261.81;;;10.94;64.94
10992;BME280;5549;47.028;15.514;2024-01-07T08:02:54;95266.09;;;10.87;63.33
10992;BME280;5549;47.028;15.514;2024-01-07T08:05:23;95262.06;;;10.50;62.89
10992;BME280;5549;47.028;15.514;2024-01-07T08:07:51;95271.47;;;9.93;63.98
10992;BME280;5549;47.028;15.514;2024-01-07T08:10:21;95271.69;;;9.48;64.82
10992;BME280;5549;47.028;15.514;2024-01-07T08:12:49;95276.91;;;9.22;66.00
10992;BME280;5549;47.028;15.514;2024-01-07T08:15:16;95290.69;;;8.88;67.08
10992;BME280;5549;47.028;15.514;2024-01-07T08:17:44;95287.78;;;8.74;68.23
10992;BME280;5549;47.028;15.514;2024-01-07T08:20:12;95282.84;;;8.71;68.72
10992;BME280;5549;47.028;15.514;2024-01-07T08:22:40;95295.00;;;8.62;69.14
10992;BME280;5549;47.028;15.514;2024-01-07T08:25:08;95290.41;;;8.46;69.32
10992;BME280;5549;47.028;15.514;2024-01-07T08:27:40;95291.00;;;8.30;70.14
10992;BME280;5549;47.028;15.514;2024-01-07T08:30:09;95294.13;;;8.16;70.12
10992;BME280;5549;47.028;15.514;2024-01-07T08:32:38;95299.19;;;7.90;69.74
10992;BME280;5549;47.028;15.514;2024-01-07T08:35:08;95295.22;;;7.86;70.75
10992;BME280;5549;47.028;15.514;2024-01-07T08:37:36;95292.38;;;7.70;71.05
10992;BME280;5549;47.028;15.514;2024-01-07T08:40:05;95304.50;;;7.61;72.27
10992;BME280;5549;47.028;15.514;2024-01-07T08:42:35;95302.19;;;7.49;72.63
10992;BME280;5549;47.028;15.514;2024-01-07T08:45:06;95304.81;;;7.49;73.10
10992;BME280;5549;47.028;15.514;2024-01-07T08:47:34;95308.81;;;7.33;73.39
10992;BME280;5549;47.028;15.514;2024-01-07T08:50:02;95314.47;;;7.29;73.48
10992;BME280;5549;47.028;15.514;2024-01-07T08:52:30;95318.59;;;7.31;73.96
10992;BME280;5549;47.028;15.514;2024-01-07T08:55:01;95313.50;;;7.30;74.03
10992;BME280;5549;47.028;15.514;2024-01-07T08:57:34;95326.28;;;7.33;73.90
10992;BME280;5549;47.028;15.514;2024-01-07T09:00:01;95316.94;;;7.21;74.59
10992;BME280;5549;47.028;15.514;2024-01-07T09:02:32;95317.34;;;7.26;73.53
10992;BME280;5549;47.028;15.514;2024-01-07T09:05:00;95320.94;;;7.15;74.35
10992;BME280;5549;47.028;15.514;2024-01-07T09:07:27;95322.59;;;7.16;74.51
10992;BME280;5549;47.028;15.514;2024-01-07T09:09:55;95330.13;;;7.10;74.83
10992;BME280;5549;47.028;15.514;2024-01-07T09:12:28;95335.34;;;7.19;75.35
10992;BME280;5549;47.028;15.514;2024-01-07T09:14:55;95333.16;;;7.15;75.28
10992;BME280;5549;47.028;15.514;2024-01-07T09:17:23;95337.84;;;7.11;74.72
10992;BME280;5549;47.028;15.514;2024-01-07T09:19:51;95340.84;;;7.16;74.83
10992;BME280;5549;47.028;15.514;2024-01-07T09:22:19;95340.84;;;7.16;75.38
10992;BME280;5549;47.028;15.514;2024-01-07T09:24:48;95343.31;;;7.08;75.47
10992;BME280;5549;47.028;15.514;2024-01-07T09:27:18;95344.69;;;7.12;75.44
10992;BME280;5549;47.028;15.514;2024-01-07T09:29:46;95342.22;;;7.11;76.29
10992;BME280;5549;47.028;15.514;2024-01-07T09:32:13;95350.47;;;7.16;75.56
10992;BME280;5549;47.028;15.514;2024-01-07T09:34:41;95357.88;;;7.11;75.23
10992;BME280;5549;47.028;15.514;2024-01-07T09:37:09;95355.56;;;6.98;75.65
10992;BME280;5549;47.028;15.514;2024-01-07T09:39:39;95358.13;;;6.88;76.54
10992;BME280;5549;47.028;15.514;2024-01-07T09:42:09;95357.56;;;6.85;76.37
10992;BME280;5549;47.028;15.514;2024-01-07T09:44:39;95360.88;;;6.87;77.18
10992;BME280;5549;47.028;15.514;2024-01-07T09:47:11;95361.28;;;6.82;76.85
10992;BME280;5549;47.028;15.514;2024-01-07T09:49:40;95353.97;;;6.76;77.50
10992;BME280;5549;47.028;15.514;2024-01-07T09:52:10;95358.66;;;6.82;77.18
10992;BME280;5549;47.028;15.514;2024-01-07T09:54:39;95355.22;;;6.72;76.45
10992;BME280;5549;47.028;15.514;2024-01-07T09:57:08;95350.25;;;6.69;76.47
10992;BME280;5549;47.028;15.514;2024-01-07T09:59:37;95350.69;;;6.74;76.33
10992;BME280;5549;47.028;15.514;2024-01-07T10:02:05;95350.00;;;6.82;75.27
10992;BME280;5549;47.028;15.514;2024-01-07T10:04:32;95349.88;;;6.93;75.85
10992;BME280;5549;47.028;15.514;2024-01-07T10:07:00;95341.69;;;7.07;75.62
10992;BME280;5549;47.028;15.514;2024-01-07T10:09:33;95344.56;;;7.04;76.04
10992;BME280;5549;47.028;15.514;2024-01-07T10:12:01;95338.94;;;6.99;76.61
10992;BME280;5549;47.028;15.514;2024-01-07T10:14:29;95349.63;;;6.96;77.97
10992;BME280;5549;47.028;15.514;2024-01-07T10:16:57;95347.13;;;6.85;78.44
10992;BME280;5549;47.028;15.514;2024-01-07T10:19:25;95339.03;;;6.88;78.58
10992;BME280;5549;47.028;15.514;2024-01-07T10:22:03;95343.28;;;6.89;78.46
10992;BME280;5549;47.028;15.514;2024-01-07T10:24:36;95346.03;;;6.87;79.01
10992;BME280;5549;47.028;15.514;2024-01-07T10:27:06;95338.78;;;7.00;79.24
10992;BME280;5549;47.028;15.514;2024-01-07T10:29:34;95350.72;;;6.93;79.38
10992;BME280;5549;47.028;15.514;2024-01-07T10:32:02;95349.88;;;6.93;80.17
10992;BME280;5549;47.028;15.514;2024-01-07T10:34:32;95352.06;;;6.88;80.00
10992;BME280;5549;47.028;15.514;2024-01-07T10:37:00;95349.19;;;6.91;80.23
10992;BME280;5549;47.028;15.514;2024-01-07T10:39:29;95342.84;;;6.74;80.66
10992;BME280;5549;47.028;15.514;2024-01-07T10:41:58;95341.34;;;6.62;81.74
10992;BME280;5549;47.028;15.514;2024-01-07T10:44:30;95346.16;;;6.66;82.23
10992;BME280;5549;47.028;15.514;2024-01-07T10:46:58;95341.63;;;6.68;81.55
10992;BME280;5549;47.028;15.514;2024-01-07T10:49:27;95339.44;;;6.73;82.07
10992;BME280;5549;47.028;15.514;2024-01-07T10:52:04;95345.75;;;6.81;81.22
10992;BME280;5549;47.028;15.514;2024-01-07T10:54:34;95341.75;;;6.76;81.98
10992;BME280;5549;47.028;15.514;2024-01-07T10:57:12;95337.78;;;6.72;82.07
10992;BME280;5549;47.028;15.514;2024-01-07T10:59:41;95340.09;;;6.66;82.45
10992;BME280;5549;47.028;15.514;2024-01-07T11:02:11;95336.41;;;6.68;82.87
10992;BME280;5549;47.028;15.514;2024-01-07T11:04:48;95344.91;;;6.61;82.84
10992;BME280;5549;47.028;15.514;2024-01-07T11:07:19;95342.28;;;6.61;82.38
10992;BME280;5549;47.028;15.514;2024-01-07T11:10:04;95339.13;;;6.57;82.78
10992;BME280;5549;47.028;15.514;2024-01-07T11:12:34;95343.66;;;6.55;82.80
10992;BME280;5549;47.028;15.514;2024-01-07T11:15:02;95346.53;;;6.52;83.16
10992;BME280;5549;47.028;15.514;2024-01-07T11:17:43;95344.88;;;6.51;83.03
10992;BME280;5549;47.028;15.514;2024-01-07T11:20:19;95341.56;;;6.49;82.84
10992;BME280;5549;47.028;15.514;2024-01-07T11:22:49;95332.25;;;6.56;83.65
10992;BME280;5549;47.028;15.514;2024-01-07T11:25:30;95336.38;;;6.49;84.17
10992;BME280;5549;47.028;15.514;2024-01-07T11:28:01;95338.00;;;6.50;83.16
10992;BME280;5549;47.028;15.514;2024-01-07T11:30:29;95341.00;;;6.36;83.76
10992;BME280;5549;47.028;15.514;2024-01-07T11:32:58;95340.72;;;6.39;84.11
10992;BME280;5549;47.028;15.514;2024-01-07T11:35:54;95342.13;;;6.43;84.14
10992;BME280;5549;47.028;15.514;2024-01-07T11:38:25;95338.28;;;6.47;84.32
10992;BME280;5549;47.028;15.514;2024-01-07T11:40:56;95342.69;;;6.56;83.71
10992;BME280;5549;47.028;15.514;2024-01-07T11:43:25;95342.28;;;6.61;83.74
10992;BME280;5549;47.028;15.514;2024-01-07T11:45:53;95333.78;;;6.68;83.89
10992;BME280;5549;47.028;15.514;2024-01-07T11:48:21;95335.31;;;6.71;83.28
10992;BME280;5549;47.028;15.514;2024-01-07T11:50:48;95340.53;;;6.71;83.50
10992;BME280;5549;47.028;15.514;2024-01-07T11:53:17;95332.53;;;6.63;84.12
10992;BME280;5549;47.028;15.514;2024-01-07T11:55:47;95336.41;;;6.68;83.21
10992;BME280;5549;47.028;15.514;2024-01-07T11:58:14;95337.78;;;6.72;83.92
10992;BME280;5549;47.028;15.514;2024-01-07T12:00:43;95341.63;;;6.68;83.89
10992;BME280;5549;47.028;15.514;2024-01-07T12:03:11;95342.56;;;6.67;83.67
10992;BME280;5549;47.028;15.514;2024-01-07T12:05:39;95334.47;;;6.70;83.52
10992;BME280;5549;47.028;15.514;2024-01-07T12:08:07;95339.28;;;6.65;83.89
10992;BME280;5549;47.028;15.514;2024-01-07T12:10:34;95342.72;;;6.75;83.61
10992;BME280;5549;47.028;15.514;2024-01-07T12:13:03;95341.34;;;6.81;83.37
10992;BME280;5549;47.028;15.514;2024-01-07T12:15:32;95336.97;;;6.82;82.34
10992;BME280;5549;47.028;15.514;2024-01-07T12:18:01;95338.47;;;6.84;82.54
10992;BME280;5549;47.028;15.514;2024-01-07T12:20:30;95344.38;;;6.86;82.84
10992;BME280;5549;47.028;15.514;2024-01-07T12:22:57;95340.81;;;6.78;82.71
10992;BME280;5549;47.028;15.514;2024-01-07T12:25:25;95336.69;;;6.85;82.93
10992;BME280;5549;47.028;15.514;2024-01-07T12:27:53;95337.50;;;6.75;83.73
10992;BME280;5549;47.028;15.514;2024-01-07T12:30:21;95332.03;;;6.79;83.24
10992;BME280;5549;47.028;15.514;2024-01-07T12:32:52;95328.16;;;6.73;83.64
10992;BME280;5549;47.028;15.514;2024-01-07T12:35:21;95333.25;;;6.74;83.39
10992;BME280;5549;47.028;15.514;2024-01-07T12:37:52;95335.88;;;6.84;83.26
10992;BME280;5549;47.028;15.514;2024-01-07T12:40:21;95333.94;;;6.86;83.09
10992;BME280;5549;47.028;15.514;2024-01-07T12:42:51;95338.91;;;6.89;83.05
10992;BME280;5549;47.028;15.514;2024-01-07T12:45:19;95340.03;;;7.06;82.48
10992;BME280;5549;47.028;15.514;2024-01-07T12:47:47;95338.66;;;7.02;82.67
10992;BME280;5549;47.028;15.514;2024-01-07T12:50:15;95339.47;;;7.02;82.39
10992;BME280;5549;47.028;15.514;2024-01-07T12:52:44;95338.94;;;6.99;82.63
10992;BME280;5549;47.028;15.514;2024-01-07T12:55:12;95340.03;;;6.96;82.87
10992;BME280;5549;47.028;15.514;2024-01-07T12:57:40;95346.06;;;6.97;82.34
10992;BME280;5549;47.028;15.514;2024-01-07T13:00:08;95342.88;;;6.93;82.77
10992;BME280;5549;47.028;15.514;2024-01-07T13:02:37;95350.06;;;7.01;82.29
10992;BME280;5549;47.028;15.514;2024-01-07T13:05:07;95352.94;;;6.98;81.97
10992;BME280;5549;47.028;15.514;2024-01-07T13:07:36;95351.56;;;6.94;82.00
10992;BME280;5549;47.028;15.514;2024-01-07T13:10:06;95354.41;;;6.91;82.27
10992;BME280;5549;47.028;15.514;2024-01-07T13:12:35;95359.50;;;6.83;83.16
10992;BME280;5549;47.028;15.514;2024-01-07T13:15:04;95349.72;;;6.75;83.06
10992;BME280;5549;47.028;15.514;2024-01-07T13:17:34;95353.00;;;6.67;82.79